sensor_id;sensor_type;location;lat;lon;timestamp;P1;P2;P0
56175;PMS5003;63065;51.082;17.016;2023-03-21T00:02:18;67;61;
56175;PMS5003;63065;51.082;17.016;2023-03-21T00:04:43;70;60;
56175;PMS5003;63065;51.082;17.016;2023-03-21T00:07:08;67;58;
56175;PMS5003;63065;51.082;17.016;2023-03-21T00:09:34;71;65;
56175;PMS5003;63065;51.082;17.016;2023-03-21T00:11:59;63;61;
56175;PMS5003;63065;51.082;17.016;2023-03-21T00:14:24;70;64;
56175;PMS5003;63065;51.082;17.016;2023-03-21T00:16:49;67;59;
56175;PMS5003;63065;51.082;17.016;2023-03-21T00:19:15;70;64;
56175;PMS5003;63065;51.082;17.016;2023-03-21T00:21:40;66;61;
56175;PMS5003;63065;51.082;17.016;2023-03-21T00:24:11;73;64;
56175;PMS5003;63065;51.082;17.016;2023-03-21T00:26:31;76;65;
56175;PMS5003;63065;51.082;17.016;2023-03-21T00:28:57;57;54;
56175;PMS5003;63065;51.082;17.016;2023-03-21T00:31:22;68;60;
56175;PMS5003;63065;51.082;17.016;2023-03-21T00:33:47;72;60;
56175;PMS5003;63065;51.082;17.016;2023-03-21T00:36:13;77;70;
56175;PMS5003;63065;51.082;17.016;2023-03-21T00:38:39;78;66;
56175;PMS5003;63065;51.082;17.016;2023-03-21T00:41:05;62;57;
56175;PMS5003;63065;51.082;17.016;2023-03-21T00:43:30;76;67;
56175;PMS5003;63065;51.082;17.016;2023-03-21T00:45:57;79;71;
56175;PMS5003;63065;51.082;17.016;2023-03-21T00:48:22;83;72;
56175;PMS5003;63065;51.082;17.016;2023-03-21T00:50:50;72;65;
56175;PMS5003;63065;51.082;17.016;2023-03-21T00:53:14;78;69;
56175;PMS5003;63065;51.082;17.016;2023-03-21T00:55:39;78;68;
56175;PMS5003;63065;51.082;17.016;2023-03-21T00:58:03;74;66;
56175;PMS5003;63065;51.082;17.016;2023-03-21T01:00:30;63;60;
56175;PMS5003;63065;51.082;17.016;2023-03-21T01:02:55;66;57;
56175;PMS5003;63065;51.082;17.016;2023-03-21T01:05:21;67;63;
56175;PMS5003;63065;51.082;17.016;2023-03-21T01:07:45;75;65;
56175;PMS5003;63065;51.082;17.016;2023-03-21T01:10:11;71;63;
56175;PMS5003;63065;51.082;17.016;2023-03-21T01:12:37;57;55;
56175;PMS5003;63065;51.082;17.016;2023-03-21T01:15:02;46;42;
56175;PMS5003;63065;51.082;17.016;2023-03-21T01:17:28;60;54;
56175;PMS5003;63065;51.082;17.016;2023-03-21T01:19:54;57;54;
56175;PMS5003;63065;51.082;17.016;2023-03-21T01:22:19;53;49;
56175;PMS5003;63065;51.082;17.016;2023-03-21T01:24:44;52;42;
56175;PMS5003;63065;51.082;17.016;2023-03-21T01:27:10;60;49;
56175;PMS5003;63065;51.082;17.016;2023-03-21T01:29:35;53;47;
56175;PMS5003;63065;51.082;17.016;2023-03-21T01:32:01;51;46;
56175;PMS5003;63065;51.082;17.016;2023-03-21T01:34:26;53;45;
56175;PMS5003;63065;51.082;17.016;2023-03-21T01:36:53;50;47;
56175;PMS5003;63065;51.082;17.016;2023-03-21T01:39:17;52;45;
56175;PMS5003;63065;51.082;17.016;2023-03-21T01:41:43;45;40;
56175;PMS5003;63065;51.082;17.016;2023-03-21T01:44:09;48;41;
56175;PMS5003;63065;51.082;17.016;2023-03-21T01:46:35;38;37;
56175;PMS5003;63065;51.082;17.016;2023-03-21T01:49:00;44;38;
56175;PMS5003;63065;51.082;17.016;2023-03-21T01:51:24;45;40;
56175;PMS5003;63065;51.082;17.016;2023-03-21T01:53:50;42;39;
56175;PMS5003;63065;51.082;17.016;2023-03-21T01:56:17;40;36;
56175;PMS5003;63065;51.082;17.016;2023-03-21T01:58:41;53;49;
56175;PMS5003;63065;51.082;17.016;2023-03-21T02:01:07;46;41;
56175;PMS5003;63065;51.082;17.016;2023-03-21T02:03:32;52;46;
56175;PMS5003;63065;51.082;17.016;2023-03-21T02:05:58;49;46;
56175;PMS5003;63065;51.082;17.016;2023-03-21T02:08:23;52;44;
56175;PMS5003;63065;51.082;17.016;2023-03-21T02:10:48;55;46;
56175;PMS5003;63065;51.082;17.016;2023-03-21T02:13:14;62;48;
56175;PMS5003;63065;51.082;17.016;2023-03-21T02:15:40;48;46;
56175;PMS5003;63065;51.082;17.016;2023-03-21T02:18:06;48;47;
56175;PMS5003;63065;51.082;17.016;2023-03-21T02:23:01;45;41;
56175;PMS5003;63065;51.082;17.016;2023-03-21T02:27:46;52;47;
56175;PMS5003;63065;51.082;17.016;2023-03-21T02:32:40;49;44;
56175;PMS5003;63065;51.082;17.016;2023-03-21T02:35:07;44;40;
56175;PMS5003;63065;51.082;17.016;2023-03-21T02:37:27;54;43;
56175;PMS5003;63065;51.082;17.016;2023-03-21T02:39:56;58;47;
56175;PMS5003;63065;51.082;17.016;2023-03-21T02:42:19;49;42;
56175;PMS5003;63065;51.082;17.016;2023-03-21T02:44:45;49;43;
56175;PMS5003;63065;51.082;17.016;2023-03-21T02:47:10;48;40;
56175;PMS5003;63065;51.082;17.016;2023-03-21T02:49:35;57;49;
56175;PMS5003;63065;51.082;17.016;2023-03-21T02:52:00;56;48;
56175;PMS5003;63065;51.082;17.016;2023-03-21T02:54:25;51;44;
56175;PMS5003;63065;51.082;17.016;2023-03-21T02:56:50;57;55;
56175;PMS5003;63065;51.082;17.016;2023-03-21T02:59:15;58;52;
56175;PMS5003;63065;51.082;17.016;2023-03-21T03:01:40;57;51;
56175;PMS5003;63065;51.082;17.016;2023-03-21T03:06:36;51;47;
56175;PMS5003;63065;51.082;17.016;2023-03-21T03:09:03;54;48;
56175;PMS5003;63065;51.082;17.016;2023-03-21T03:11:23;52;49;
56175;PMS5003;63065;51.082;17.016;2023-03-21T03:13:52;56;51;
56175;PMS5003;63065;51.082;17.016;2023-03-21T03:16:15;55;52;
56175;PMS5003;63065;51.082;17.016;2023-03-21T03:18:40;63;53;
56175;PMS5003;63065;51.082;17.016;2023-03-21T03:21:04;57;53;
56175;PMS5003;63065;51.082;17.016;2023-03-21T03:23:29;54;49;
56175;PMS5003;63065;51.082;17.016;2023-03-21T03:25:55;60;56;
56175;PMS5003;63065;51.082;17.016;2023-03-21T03:28:21;56;49;
56175;PMS5003;63065;51.082;17.016;2023-03-21T03:30:46;45;43;
56175;PMS5003;63065;51.082;17.016;2023-03-21T03:33:12;52;52;
56175;PMS5003;63065;51.082;17.016;2023-03-21T03:35:37;52;47;
56175;PMS5003;63065;51.082;17.016;2023-03-21T03:38:03;58;52;
56175;PMS5003;63065;51.082;17.016;2023-03-21T03:40:29;51;47;
56175;PMS5003;63065;51.082;17.016;2023-03-21T03:42:54;53;46;
56175;PMS5003;63065;51.082;17.016;2023-03-21T03:45:19;63;52;
56175;PMS5003;63065;51.082;17.016;2023-03-21T03:47:45;55;47;
56175;PMS5003;63065;51.082;17.016;2023-03-21T03:50:11;58;50;
56175;PMS5003;63065;51.082;17.016;2023-03-21T03:52:36;60;51;
56175;PMS5003;63065;51.082;17.016;2023-03-21T03:55:01;53;46;
56175;PMS5003;63065;51.082;17.016;2023-03-21T03:57:25;53;46;
56175;PMS5003;63065;51.082;17.016;2023-03-21T03:59:50;50;46;
56175;PMS5003;63065;51.082;17.016;2023-03-21T04:02:16;54;47;
56175;PMS5003;63065;51.082;17.016;2023-03-21T04:04:42;64;54;
56175;PMS5003;63065;51.082;17.016;2023-03-21T04:07:07;69;59;
56175;PMS5003;63065;51.082;17.016;2023-03-21T04:09:32;55;49;
56175;PMS5003;63065;51.082;17.016;2023-03-21T04:11:57;61;53;
56175;PMS5003;63065;51.082;17.016;2023-03-21T04:14:23;62;47;
56175;PMS5003;63065;51.082;17.016;2023-03-21T04:16:48;56;51;
56175;PMS5003;63065;51.082;17.016;2023-03-21T04:19:14;58;52;
56175;PMS5003;63065;51.082;17.016;2023-03-21T04:21:40;56;52;
56175;PMS5003;63065;51.082;17.016;2023-03-21T04:24:05;57;50;
56175;PMS5003;63065;51.082;17.016;2023-03-21T04:26:31;63;53;
56175;PMS5003;63065;51.082;17.016;2023-03-21T04:28:57;59;53;
56175;PMS5003;63065;51.082;17.016;2023-03-21T04:31:22;58;53;
56175;PMS5003;63065;51.082;17.016;2023-03-21T04:33:47;62;51;
56175;PMS5003;63065;51.082;17.016;2023-03-21T04:36:12;57;53;
56175;PMS5003;63065;51.082;17.016;2023-03-21T04:38:38;71;61;
56175;PMS5003;63065;51.082;17.016;2023-03-21T04:41:04;61;53;
56175;PMS5003;63065;51.082;17.016;2023-03-21T04:43:29;55;48;
56175;PMS5003;63065;51.082;17.016;2023-03-21T04:45:54;67;58;
56175;PMS5003;63065;51.082;17.016;2023-03-21T04:48:20;66;56;
56175;PMS5003;63065;51.082;17.016;2023-03-21T04:50:45;60;51;
56175;PMS5003;63065;51.082;17.016;2023-03-21T04:53:11;61;57;
56175;PMS5003;63065;51.082;17.016;2023-03-21T04:55:36;61;56;
56175;PMS5003;63065;51.082;17.016;2023-03-21T04:58:02;59;55;
56175;PMS5003;63065;51.082;17.016;2023-03-21T05:00:28;62;51;
56175;PMS5003;63065;51.082;17.016;2023-03-21T05:02:54;57;55;
56175;PMS5003;63065;51.082;17.016;2023-03-21T05:05:19;63;56;
56175;PMS5003;63065;51.082;17.016;2023-03-21T05:07:45;54;50;
56175;PMS5003;63065;51.082;17.016;2023-03-21T05:10:11;63;53;
56175;PMS5003;63065;51.082;17.016;2023-03-21T05:12:36;53;47;
56175;PMS5003;63065;51.082;17.016;2023-03-21T05:15:01;57;52;
56175;PMS5003;63065;51.082;17.016;2023-03-21T05:17:26;69;63;
56175;PMS5003;63065;51.082;17.016;2023-03-21T05:19:52;66;59;
56175;PMS5003;63065;51.082;17.016;2023-03-21T05:22:18;61;52;
56175;PMS5003;63065;51.082;17.016;2023-03-21T05:24:44;73;66;
56175;PMS5003;63065;51.082;17.016;2023-03-21T05:27:09;66;55;
56175;PMS5003;63065;51.082;17.016;2023-03-21T05:29:35;69;60;
56175;PMS5003;63065;51.082;17.016;2023-03-21T05:32:00;68;57;
56175;PMS5003;63065;51.082;17.016;2023-03-21T05:34:26;67;59;
56175;PMS5003;63065;51.082;17.016;2023-03-21T05:36:51;60;55;
56175;PMS5003;63065;51.082;17.016;2023-03-21T05:39:16;62;54;
56175;PMS5003;63065;51.082;17.016;2023-03-21T05:41:41;66;59;
56175;PMS5003;63065;51.082;17.016;2023-03-21T05:44:07;53;52;
56175;PMS5003;63065;51.082;17.016;2023-03-21T05:46:32;59;51;
56175;PMS5003;63065;51.082;17.016;2023-03-21T05:48:57;62;52;
56175;PMS5003;63065;51.082;17.016;2023-03-21T05:51:22;68;57;
56175;PMS5003;63065;51.082;17.016;2023-03-21T05:53:48;69;58;
56175;PMS5003;63065;51.082;17.016;2023-03-21T05:56:13;62;56;
56175;PMS5003;63065;51.082;17.016;2023-03-21T05:58:38;66;60;
56175;PMS5003;63065;51.082;17.016;2023-03-21T06:01:04;76;67;
56175;PMS5003;63065;51.082;17.016;2023-03-21T06:03:30;68;60;
56175;PMS5003;63065;51.082;17.016;2023-03-21T06:05:56;63;54;
56175;PMS5003;63065;51.082;17.016;2023-03-21T06:08:21;68;60;
56175;PMS5003;63065;51.082;17.016;2023-03-21T06:10:46;68;63;
56175;PMS5003;63065;51.082;17.016;2023-03-21T06:13:12;68;62;
56175;PMS5003;63065;51.082;17.016;2023-03-21T06:15:37;70;60;
56175;PMS5003;63065;51.082;17.016;2023-03-21T06:18:02;61;57;
56175;PMS5003;63065;51.082;17.016;2023-03-21T06:20:27;66;57;
56175;PMS5003;63065;51.082;17.016;2023-03-21T06:22:53;69;59;
56175;PMS5003;63065;51.082;17.016;2023-03-21T06:25:18;67;58;
56175;PMS5003;63065;51.082;17.016;2023-03-21T06:27:43;65;61;
56175;PMS5003;63065;51.082;17.016;2023-03-21T06:30:09;69;58;
56175;PMS5003;63065;51.082;17.016;2023-03-21T06:32:34;68;60;
56175;PMS5003;63065;51.082;17.016;2023-03-21T06:34:59;61;57;
56175;PMS5003;63065;51.082;17.016;2023-03-21T06:37:25;64;58;
56175;PMS5003;63065;51.082;17.016;2023-03-21T06:39:51;58;53;
56175;PMS5003;63065;51.082;17.016;2023-03-21T06:42:17;60;53;
56175;PMS5003;63065;51.082;17.016;2023-03-21T06:44:42;72;58;
56175;PMS5003;63065;51.082;17.016;2023-03-21T06:47:07;57;53;
56175;PMS5003;63065;51.082;17.016;2023-03-21T06:49:32;54;50;
56175;PMS5003;63065;51.082;17.016;2023-03-21T06:51:58;65;57;
56175;PMS5003;63065;51.082;17.016;2023-03-21T06:54:23;57;54;
56175;PMS5003;63065;51.082;17.016;2023-03-21T06:56:49;62;57;
56175;PMS5003;63065;51.082;17.016;2023-03-21T06:59:14;48;42;
56175;PMS5003;63065;51.082;17.016;2023-03-21T07:01:40;54;49;
56175;PMS5003;63065;51.082;17.016;2023-03-21T07:04:05;54;43;
56175;PMS5003;63065;51.082;17.016;2023-03-21T07:06:31;49;41;
56175;PMS5003;63065;51.082;17.016;2023-03-21T07:08:56;61;49;
56175;PMS5003;63065;51.082;17.016;2023-03-21T07:11:21;63;56;
56175;PMS5003;63065;51.082;17.016;2023-03-21T07:13:47;53;46;
56175;PMS5003;63065;51.082;17.016;2023-03-21T07:16:12;62;52;
56175;PMS5003;63065;51.082;17.016;2023-03-21T07:18:37;48;47;
56175;PMS5003;63065;51.082;17.016;2023-03-21T07:21:03;51;45;
56175;PMS5003;63065;51.082;17.016;2023-03-21T07:23:29;60;50;
56175;PMS5003;63065;51.082;17.016;2023-03-21T07:25:54;53;48;
56175;PMS5003;63065;51.082;17.016;2023-03-21T07:28:19;56;49;
56175;PMS5003;63065;51.082;17.016;2023-03-21T07:30:50;59;52;
56175;PMS5003;63065;51.082;17.016;2023-03-21T07:33:11;51;45;
56175;PMS5003;63065;51.082;17.016;2023-03-21T07:35:36;62;55;
56175;PMS5003;63065;51.082;17.016;2023-03-21T07:38:02;52;46;
56175;PMS5003;63065;51.082;17.016;2023-03-21T07:40:27;43;41;
56175;PMS5003;63065;51.082;17.016;2023-03-21T07:42:53;60;51;
56175;PMS5003;63065;51.082;17.016;2023-03-21T07:45:19;56;51;
56175;PMS5003;63065;51.082;17.016;2023-03-21T07:47:44;50;45;
56175;PMS5003;63065;51.082;17.016;2023-03-21T07:50:10;59;50;
56175;PMS5003;63065;51.082;17.016;2023-03-21T07:52:35;59;54;
56175;PMS5003;63065;51.082;17.016;2023-03-21T07:55:01;47;44;
56175;PMS5003;63065;51.082;17.016;2023-03-21T07:57:26;61;55;
56175;PMS5003;63065;51.082;17.016;2023-03-21T07:59:51;55;44;
56175;PMS5003;63065;51.082;17.016;2023-03-21T08:02:17;51;43;
56175;PMS5003;63065;51.082;17.016;2023-03-21T08:04:43;47;43;
56175;PMS5003;63065;51.082;17.016;2023-03-21T08:07:08;58;52;
56175;PMS5003;63065;51.082;17.016;2023-03-21T08:09:33;57;49;
56175;PMS5003;63065;51.082;17.016;2023-03-21T08:12:00;51;45;
56175;PMS5003;63065;51.082;17.016;2023-03-21T08:14:25;53;46;
56175;PMS5003;63065;51.082;17.016;2023-03-21T08:16:50;51;42;
56175;PMS5003;63065;51.082;17.016;2023-03-21T08:19:15;52;47;
56175;PMS5003;63065;51.082;17.016;2023-03-21T08:21:41;57;47;
56175;PMS5003;63065;51.082;17.016;2023-03-21T08:24:06;58;48;
56175;PMS5003;63065;51.082;17.016;2023-03-21T08:26:32;39;37;
56175;PMS5003;63065;51.082;17.016;2023-03-21T08:28:57;50;45;
56175;PMS5003;63065;51.082;17.016;2023-03-21T08:31:23;49;41;
56175;PMS5003;63065;51.082;17.016;2023-03-21T08:33:48;48;44;
56175;PMS5003;63065;51.082;17.016;2023-03-21T08:36:14;47;42;
56175;PMS5003;63065;51.082;17.016;2023-03-21T08:38:40;46;43;
56175;PMS5003;63065;51.082;17.016;2023-03-21T08:41:05;45;41;
56175;PMS5003;63065;51.082;17.016;2023-03-21T08:43:30;55;48;
56175;PMS5003;63065;51.082;17.016;2023-03-21T08:45:55;56;50;
56175;PMS5003;63065;51.082;17.016;2023-03-21T08:48:21;49;43;
56175;PMS5003;63065;51.082;17.016;2023-03-21T08:50:46;50;46;
56175;PMS5003;63065;51.082;17.016;2023-03-21T08:53:11;53;50;
56175;PMS5003;63065;51.082;17.016;2023-03-21T08:55:37;56;49;
56175;PMS5003;63065;51.082;17.016;2023-03-21T08:58:03;61;51;
56175;PMS5003;63065;51.082;17.016;2023-03-21T09:00:28;51;48;
56175;PMS5003;63065;51.082;17.016;2023-03-21T09:02:54;53;47;
56175;PMS5003;63065;51.082;17.016;2023-03-21T09:05:20;53;48;
56175;PMS5003;63065;51.082;17.016;2023-03-21T09:07:45;53;48;
56175;PMS5003;63065;51.082;17.016;2023-03-21T09:10:11;53;40;
56175;PMS5003;63065;51.082;17.016;2023-03-21T09:12:36;51;51;
56175;PMS5003;63065;51.082;17.016;2023-03-21T09:15:02;45;41;
56175;PMS5003;63065;51.082;17.016;2023-03-21T09:17:27;51;45;
56175;PMS5003;63065;51.082;17.016;2023-03-21T09:19:52;53;49;
56175;PMS5003;63065;51.082;17.016;2023-03-21T09:22:18;56;50;
56175;PMS5003;63065;51.082;17.016;2023-03-21T09:24:44;44;41;
56175;PMS5003;63065;51.082;17.016;2023-03-21T09:27:09;52;42;
56175;PMS5003;63065;51.082;17.016;2023-03-21T09:29:34;55;46;
56175;PMS5003;63065;51.082;17.016;2023-03-21T09:32:00;50;45;
56175;PMS5003;63065;51.082;17.016;2023-03-21T09:34:25;51;43;
56175;PMS5003;63065;51.082;17.016;2023-03-21T09:36:50;53;47;
56175;PMS5003;63065;51.082;17.016;2023-03-21T09:39:16;52;45;
56175;PMS5003;63065;51.082;17.016;2023-03-21T09:41:45;51;45;
56175;PMS5003;63065;51.082;17.016;2023-03-21T09:44:10;55;49;
56175;PMS5003;63065;51.082;17.016;2023-03-21T09:46:34;51;48;
56175;PMS5003;63065;51.082;17.016;2023-03-21T09:48:58;52;49;
56175;PMS5003;63065;51.082;17.016;2023-03-21T09:51:25;57;50;
56175;PMS5003;63065;51.082;17.016;2023-03-21T09:53:49;62;49;
56175;PMS5003;63065;51.082;17.016;2023-03-21T09:56:14;56;50;
56175;PMS5003;63065;51.082;17.016;2023-03-21T09:58:40;48;45;
56175;PMS5003;63065;51.082;17.016;2023-03-21T10:01:07;58;51;
56175;PMS5003;63065;51.082;17.016;2023-03-21T10:03:30;52;43;
56175;PMS5003;63065;51.082;17.016;2023-03-21T10:05:56;55;51;
56175;PMS5003;63065;51.082;17.016;2023-03-21T10:08:22;48;45;
56175;PMS5003;63065;51.082;17.016;2023-03-21T10:10:47;61;49;
56175;PMS5003;63065;51.082;17.016;2023-03-21T10:13:12;56;49;
56175;PMS5003;63065;51.082;17.016;2023-03-21T10:15:37;55;49;
56175;PMS5003;63065;51.082;17.016;2023-03-21T10:18:04;56;48;
56175;PMS5003;63065;51.082;17.016;2023-03-21T10:20:29;57;52;
56175;PMS5003;63065;51.082;17.016;2023-03-21T10:22:54;47;44;
56175;PMS5003;63065;51.082;17.016;2023-03-21T10:25:20;46;42;
56175;PMS5003;63065;51.082;17.016;2023-03-21T10:27:45;65;49;
56175;PMS5003;63065;51.082;17.016;2023-03-21T10:30:14;51;48;
56175;PMS5003;63065;51.082;17.016;2023-03-21T10:32:36;67;54;
56175;PMS5003;63065;51.082;17.016;2023-03-21T10:35:01;62;54;
56175;PMS5003;63065;51.082;17.016;2023-03-21T10:37:26;57;48;
56175;PMS5003;63065;51.082;17.016;2023-03-21T10:39:52;60;50;
56175;PMS5003;63065;51.082;17.016;2023-03-21T10:42:19;53;47;
56175;PMS5003;63065;51.082;17.016;2023-03-21T10:44:45;68;59;
56175;PMS5003;63065;51.082;17.016;2023-03-21T10:47:09;53;52;
56175;PMS5003;63065;51.082;17.016;2023-03-21T10:49:35;53;46;
56175;PMS5003;63065;51.082;17.016;2023-03-21T10:52:01;52;46;
56175;PMS5003;63065;51.082;17.016;2023-03-21T10:54:27;56;50;
56175;PMS5003;63065;51.082;17.016;2023-03-21T10:56:53;57;52;
56175;PMS5003;63065;51.082;17.016;2023-03-21T10:59:17;60;51;
56175;PMS5003;63065;51.082;17.016;2023-03-21T11:01:42;64;57;
56175;PMS5003;63065;51.082;17.016;2023-03-21T11:04:08;55;51;
56175;PMS5003;63065;51.082;17.016;2023-03-21T11:06:35;61;59;
56175;PMS5003;63065;51.082;17.016;2023-03-21T11:09:00;58;54;
56175;PMS5003;63065;51.082;17.016;2023-03-21T11:11:25;60;54;
56175;PMS5003;63065;51.082;17.016;2023-03-21T11:13:55;57;47;
56175;PMS5003;63065;51.082;17.016;2023-03-21T11:16:17;55;51;
56175;PMS5003;63065;51.082;17.016;2023-03-21T11:18:42;59;53;
56175;PMS5003;63065;51.082;17.016;2023-03-21T11:21:07;60;56;
56175;PMS5003;63065;51.082;17.016;2023-03-21T11:23:32;62;55;
56175;PMS5003;63065;51.082;17.016;2023-03-21T11:25:57;55;51;
56175;PMS5003;63065;51.082;17.016;2023-03-21T11:28:23;66;62;
56175;PMS5003;63065;51.082;17.016;2023-03-21T11:30:48;57;53;
56175;PMS5003;63065;51.082;17.016;2023-03-21T11:33:13;66;62;
56175;PMS5003;63065;51.082;17.016;2023-03-21T11:35:38;67;60;
56175;PMS5003;63065;51.082;17.016;2023-03-21T11:38:05;70;61;
56175;PMS5003;63065;51.082;17.016;2023-03-21T11:40:30;66;53;
56175;PMS5003;63065;51.082;17.016;2023-03-21T11:42:55;65;59;
56175;PMS5003;63065;51.082;17.016;2023-03-21T11:45:21;62;59;
56175;PMS5003;63065;51.082;17.016;2023-03-21T11:47:51;67;62;
56175;PMS5003;63065;51.082;17.016;2023-03-21T11:50:16;66;60;
56175;PMS5003;63065;51.082;17.016;2023-03-21T11:52:37;61;61;
56175;PMS5003;63065;51.082;17.016;2023-03-21T11:55:08;65;58;
56175;PMS5003;63065;51.082;17.016;2023-03-21T11:57:28;69;62;
56175;PMS5003;63065;51.082;17.016;2023-03-21T11:59:54;65;61;
56175;PMS5003;63065;51.082;17.016;2023-03-21T12:02:25;60;56;
56175;PMS5003;63065;51.082;17.016;2023-03-21T12:04:45;63;59;
56175;PMS5003;63065;51.082;17.016;2023-03-21T12:07:15;82;65;
56175;PMS5003;63065;51.082;17.016;2023-03-21T12:09:37;69;63;
56175;PMS5003;63065;51.082;17.016;2023-03-21T12:12:03;69;65;
56175;PMS5003;63065;51.082;17.016;2023-03-21T12:14:28;69;65;
56175;PMS5003;63065;51.082;17.016;2023-03-21T12:16:55;67;62;
56175;PMS5003;63065;51.082;17.016;2023-03-21T12:19:24;73;62;
56175;PMS5003;63065;51.082;17.016;2023-03-21T12:21:45;62;60;
56175;PMS5003;63065;51.082;17.016;2023-03-21T12:24:10;76;68;
56175;PMS5003;63065;51.082;17.016;2023-03-21T12:26:36;68;61;
56175;PMS5003;63065;51.082;17.016;2023-03-21T12:29:07;66;58;
56175;PMS5003;63065;51.082;17.016;2023-03-21T12:31:26;73;63;
56175;PMS5003;63065;51.082;17.016;2023-03-21T12:33:54;71;63;
56175;PMS5003;63065;51.082;17.016;2023-03-21T12:36:19;58;55;
56175;PMS5003;63065;51.082;17.016;2023-03-21T12:38:42;62;58;
56175;PMS5003;63065;51.082;17.016;2023-03-21T12:41:11;57;53;
56175;PMS5003;63065;51.082;17.016;2023-03-21T12:43:36;72;63;
56175;PMS5003;63065;51.082;17.016;2023-03-21T12:45:59;71;62;
56175;PMS5003;63065;51.082;17.016;2023-03-21T12:48:35;63;58;
56175;PMS5003;63065;51.082;17.016;2023-03-21T12:50:49;54;45;
56175;PMS5003;63065;51.082;17.016;2023-03-21T12:53:22;50;50;
56175;PMS5003;63065;51.082;17.016;2023-03-21T12:55:39;62;53;
56175;PMS5003;63065;51.082;17.016;2023-03-21T12:58:05;57;52;
56175;PMS5003;63065;51.082;17.016;2023-03-21T13:00:32;60;56;
56175;PMS5003;63065;51.082;17.016;2023-03-21T13:02:56;54;50;
56175;PMS5003;63065;51.082;17.016;2023-03-21T13:05:25;55;52;
56175;PMS5003;63065;51.082;17.016;2023-03-21T13:07:47;67;58;
56175;PMS5003;63065;51.082;17.016;2023-03-21T13:10:13;59;50;
56175;PMS5003;63065;51.082;17.016;2023-03-21T13:12:40;60;51;
56175;PMS5003;63065;51.082;17.016;2023-03-21T13:15:06;58;51;
56175;PMS5003;63065;51.082;17.016;2023-03-21T13:17:29;55;49;
56175;PMS5003;63065;51.082;17.016;2023-03-21T13:19:55;53;45;
56175;PMS5003;63065;51.082;17.016;2023-03-21T13:22:21;60;59;
56175;PMS5003;63065;51.082;17.016;2023-03-21T13:24:46;53;50;
56175;PMS5003;63065;51.082;17.016;2023-03-21T13:27:15;69;55;
56175;PMS5003;63065;51.082;17.016;2023-03-21T13:29:41;60;58;
56175;PMS5003;63065;51.082;17.016;2023-03-21T13:34:26;59;50;
56175;PMS5003;63065;51.082;17.016;2023-03-21T13:36:51;50;47;
56175;PMS5003;63065;51.082;17.016;2023-03-21T13:39:17;50;47;
56175;PMS5003;63065;51.082;17.016;2023-03-21T13:41:43;49;47;
56175;PMS5003;63065;51.082;17.016;2023-03-21T13:46:34;55;44;
56175;PMS5003;63065;51.082;17.016;2023-03-21T13:49:01;50;44;
56175;PMS5003;63065;51.082;17.016;2023-03-21T13:56:19;49;42;
56175;PMS5003;63065;51.082;17.016;2023-03-21T14:03:33;39;36;
56175;PMS5003;63065;51.082;17.016;2023-03-21T14:05:57;33;30;
56175;PMS5003;63065;51.082;17.016;2023-03-21T14:08:22;27;27;
56175;PMS5003;63065;51.082;17.016;2023-03-21T14:10:50;30;27;
56175;PMS5003;63065;51.082;17.016;2023-03-21T14:13:14;32;31;
56175;PMS5003;63065;51.082;17.016;2023-03-21T14:15:38;44;39;
56175;PMS5003;63065;51.082;17.016;2023-03-21T14:18:04;39;37;
56175;PMS5003;63065;51.082;17.016;2023-03-21T14:20:29;50;45;
56175;PMS5003;63065;51.082;17.016;2023-03-21T14:22:55;49;44;
56175;PMS5003;63065;51.082;17.016;2023-03-21T14:25:21;41;41;
56175;PMS5003;63065;51.082;17.016;2023-03-21T14:27:47;43;40;
56175;PMS5003;63065;51.082;17.016;2023-03-21T14:30:18;54;49;
56175;PMS5003;63065;51.082;17.016;2023-03-21T14:32:37;46;45;
56175;PMS5003;63065;51.082;17.016;2023-03-21T14:35:02;43;40;
56175;PMS5003;63065;51.082;17.016;2023-03-21T14:37:30;48;46;
56175;PMS5003;63065;51.082;17.016;2023-03-21T14:39:56;42;36;
56175;PMS5003;63065;51.082;17.016;2023-03-21T14:42:23;50;45;
56175;PMS5003;63065;51.082;17.016;2023-03-21T14:44:47;52;44;
56175;PMS5003;63065;51.082;17.016;2023-03-21T14:49:34;53;47;
56175;PMS5003;63065;51.082;17.016;2023-03-21T14:52:01;44;41;
56175;PMS5003;63065;51.082;17.016;2023-03-21T14:54:25;50;44;
56175;PMS5003;63065;51.082;17.016;2023-03-21T14:56:51;47;44;
56175;PMS5003;63065;51.082;17.016;2023-03-21T14:59:17;44;43;
56175;PMS5003;63065;51.082;17.016;2023-03-21T15:01:41;52;45;
56175;PMS5003;63065;51.082;17.016;2023-03-21T15:04:07;54;46;
56175;PMS5003;63065;51.082;17.016;2023-03-21T15:06:32;58;52;
56175;PMS5003;63065;51.082;17.016;2023-03-21T15:08:58;50;46;
56175;PMS5003;63065;51.082;17.016;2023-03-21T15:11:28;59;54;
56175;PMS5003;63065;51.082;17.016;2023-03-21T15:13:48;59;46;
56175;PMS5003;63065;51.082;17.016;2023-03-21T15:16:13;54;50;
56175;PMS5003;63065;51.082;17.016;2023-03-21T15:18:39;43;42;
56175;PMS5003;63065;51.082;17.016;2023-03-21T15:21:04;49;43;
56175;PMS5003;63065;51.082;17.016;2023-03-21T15:23:30;53;49;
56175;PMS5003;63065;51.082;17.016;2023-03-21T15:25:55;49;42;
56175;PMS5003;63065;51.082;17.016;2023-03-21T15:28:20;52;45;
56175;PMS5003;63065;51.082;17.016;2023-03-21T15:30:46;54;43;
56175;PMS5003;63065;51.082;17.016;2023-03-21T15:33:11;53;44;
56175;PMS5003;63065;51.082;17.016;2023-03-21T15:35:37;54;46;
56175;PMS5003;63065;51.082;17.016;2023-03-21T15:38:01;48;47;
56175;PMS5003;63065;51.082;17.016;2023-03-21T15:40:28;49;46;
56175;PMS5003;63065;51.082;17.016;2023-03-21T15:45:20;48;46;
56175;PMS5003;63065;51.082;17.016;2023-03-21T15:50:10;58;53;
56175;PMS5003;63065;51.082;17.016;2023-03-21T15:52:34;54;46;
56175;PMS5003;63065;51.082;17.016;2023-03-21T15:55:00;57;51;
56175;PMS5003;63065;51.082;17.016;2023-03-21T15:57:26;54;48;
56175;PMS5003;63065;51.082;17.016;2023-03-21T15:59:54;60;54;
56175;PMS5003;63065;51.082;17.016;2023-03-21T16:02:18;60;56;
56175;PMS5003;63065;51.082;17.016;2023-03-21T16:07:12;68;62;
56175;PMS5003;63065;51.082;17.016;2023-03-21T16:11:58;60;51;
56175;PMS5003;63065;51.082;17.016;2023-03-21T16:14:24;52;48;
56175;PMS5003;63065;51.082;17.016;2023-03-21T16:16:49;56;50;
56175;PMS5003;63065;51.082;17.016;2023-03-21T16:19:15;50;45;
56175;PMS5003;63065;51.082;17.016;2023-03-21T16:21:40;53;47;
56175;PMS5003;63065;51.082;17.016;2023-03-21T16:24:05;61;57;
56175;PMS5003;63065;51.082;17.016;2023-03-21T16:26:33;52;48;